sensor_id;sensor_type;location;lat;lon;timestamp;P1;durP1;ratioP1;P2;durP2;ratioP2
22030;SDS011;11179;52.106;21.024;2023-03-23T00:01:20;54.83;;;26.07;;
22030;SDS011;11179;52.106;21.024;2023-03-23T00:03:50;51.43;;;26.30;;
22030;SDS011;11179;52.106;21.024;2023-03-23T00:06:17;56.27;;;26.60;;
22030;SDS011;11179;52.106;21.024;2023-03-23T00:08:44;52.87;;;25.73;;
22030;SDS011;11179;52.106;21.024;2023-03-23T00:11:16;49.60;;;26.30;;
22030;SDS011;11179;52.106;21.024;2023-03-23T00:13:46;54.20;;;26.33;;
22030;SDS011;11179;52.106;21.024;2023-03-23T00:16:16;60.90;;;27.07;;
22030;SDS011;11179;52.106;21.024;2023-03-23T00:19:02;52.97;;;25.13;;
22030;SDS011;11179;52.106;21.024;2023-03-23T00:21:32;56.17;;;25.30;;
22030;SDS011;11179;52.106;21.024;2023-03-23T00:24:05;53.83;;;26.40;;
22030;SDS011;11179;52.106;21.024;2023-03-23T00:26:33;48.17;;;26.60;;
22030;SDS011;11179;52.106;21.024;2023-03-23T00:29:01;45.10;;;23.60;;
22030;SDS011;11179;52.106;21.024;2023-03-23T00:31:28;49.73;;;25.10;;
22030;SDS011;11179;52.106;21.024;2023-03-23T00:33:56;51.37;;;24.50;;
22030;SDS011;11179;52.106;21.024;2023-03-23T00:36:23;52.73;;;24.70;;
22030;SDS011;11179;52.106;21.024;2023-03-23T00:38:49;49.07;;;22.80;;
22030;SDS011;11179;52.106;21.024;2023-03-23T00:41:15;47.00;;;23.97;;
22030;SDS011;11179;52.106;21.024;2023-03-23T00:43:40;44.03;;;23.20;;
22030;SDS011;11179;52.106;21.024;2023-03-23T00:46:06;44.17;;;22.70;;
22030;SDS011;11179;52.106;21.024;2023-03-23T00:48:35;47.23;;;23.10;;
22030;SDS011;11179;52.106;21.024;2023-03-23T00:51:05;43.50;;;21.87;;
22030;SDS011;11179;52.106;21.024;2023-03-23T00:53:36;54.87;;;25.90;;
22030;SDS011;11179;52.106;21.024;2023-03-23T00:56:02;52.67;;;24.73;;
22030;SDS011;11179;52.106;21.024;2023-03-23T00:58:28;45.57;;;22.17;;
22030;SDS011;11179;52.106;21.024;2023-03-23T01:00:53;52.43;;;23.20;;
22030;SDS011;11179;52.106;21.024;2023-03-23T01:03:19;46.77;;;22.57;;
22030;SDS011;11179;52.106;21.024;2023-03-23T01:05:45;50.33;;;23.60;;
22030;SDS011;11179;52.106;21.024;2023-03-23T01:08:12;48.40;;;22.00;;
22030;SDS011;11179;52.106;21.024;2023-03-23T01:10:39;41.83;;;21.67;;
22030;SDS011;11179;52.106;21.024;2023-03-23T01:13:05;47.30;;;22.17;;
22030;SDS011;11179;52.106;21.024;2023-03-23T01:15:32;46.67;;;22.47;;
22030;SDS011;11179;52.106;21.024;2023-03-23T01:17:57;42.27;;;21.83;;
22030;SDS011;11179;52.106;21.024;2023-03-23T01:20:23;51.10;;;22.90;;
22030;SDS011;11179;52.106;21.024;2023-03-23T01:22:49;45.40;;;22.33;;
22030;SDS011;11179;52.106;21.024;2023-03-23T01:25:15;47.83;;;22.83;;
22030;SDS011;11179;52.106;21.024;2023-03-23T01:27:40;44.30;;;22.10;;
22030;SDS011;11179;52.106;21.024;2023-03-23T01:30:07;47.63;;;23.07;;
22030;SDS011;11179;52.106;21.024;2023-03-23T01:32:36;47.87;;;23.87;;
22030;SDS011;11179;52.106;21.024;2023-03-23T01:35:02;43.33;;;21.80;;
22030;SDS011;11179;52.106;21.024;2023-03-23T01:37:27;51.03;;;23.67;;
22030;SDS011;11179;52.106;21.024;2023-03-23T01:39:54;48.80;;;23.77;;
22030;SDS011;11179;52.106;21.024;2023-03-23T01:42:24;48.87;;;24.23;;
22030;SDS011;11179;52.106;21.024;2023-03-23T01:47:16;41.43;;;20.90;;
22030;SDS011;11179;52.106;21.024;2023-03-23T01:49:46;43.90;;;23.17;;
22030;SDS011;11179;52.106;21.024;2023-03-23T01:52:15;45.13;;;21.07;;
22030;SDS011;11179;52.106;21.024;2023-03-23T01:54:46;44.73;;;22.80;;
22030;SDS011;11179;52.106;21.024;2023-03-23T01:57:16;46.40;;;23.07;;
22030;SDS011;11179;52.106;21.024;2023-03-23T01:59:45;46.47;;;23.10;;
22030;SDS011;11179;52.106;21.024;2023-03-23T02:02:14;45.20;;;22.07;;
22030;SDS011;11179;52.106;21.024;2023-03-23T02:04:41;48.87;;;23.70;;
22030;SDS011;11179;52.106;21.024;2023-03-23T02:07:07;45.17;;;21.57;;
22030;SDS011;11179;52.106;21.024;2023-03-23T02:09:34;47.13;;;22.37;;
22030;SDS011;11179;52.106;21.024;2023-03-23T02:11:59;46.90;;;22.47;;
22030;SDS011;11179;52.106;21.024;2023-03-23T02:14:26;45.93;;;22.67;;
22030;SDS011;11179;52.106;21.024;2023-03-23T02:22:39;40.43;;;21.43;;
22030;SDS011;11179;52.106;21.024;2023-03-23T02:33:34;41.47;;;20.67;;
22030;SDS011;11179;52.106;21.024;2023-03-23T02:38:38;40.60;;;20.63;;
22030;SDS011;11179;52.106;21.024;2023-03-23T02:41:07;42.57;;;20.33;;
22030;SDS011;11179;52.106;21.024;2023-03-23T02:43:34;42.90;;;20.70;;
22030;SDS011;11179;52.106;21.024;2023-03-23T02:46:05;45.33;;;22.03;;
22030;SDS011;11179;52.106;21.024;2023-03-23T02:48:33;35.63;;;18.73;;
22030;SDS011;11179;52.106;21.024;2023-03-23T02:51:00;43.17;;;20.40;;
22030;SDS011;11179;52.106;21.024;2023-03-23T02:53:27;39.57;;;18.43;;
22030;SDS011;11179;52.106;21.024;2023-03-23T02:55:54;50.40;;;20.80;;
22030;SDS011;11179;52.106;21.024;2023-03-23T02:58:22;40.63;;;20.03;;
22030;SDS011;11179;52.106;21.024;2023-03-23T03:00:50;42.87;;;18.73;;
22030;SDS011;11179;52.106;21.024;2023-03-23T03:03:17;36.10;;;18.77;;
22030;SDS011;11179;52.106;21.024;2023-03-23T03:08:35;32.83;;;18.27;;
22030;SDS011;11179;52.106;21.024;2023-03-23T03:11:21;41.23;;;18.70;;
22030;SDS011;11179;52.106;21.024;2023-03-23T03:14:00;39.27;;;18.40;;
22030;SDS011;11179;52.106;21.024;2023-03-23T03:16:47;37.80;;;19.40;;
22030;SDS011;11179;52.106;21.024;2023-03-23T03:19:25;36.53;;;19.23;;
22030;SDS011;11179;52.106;21.024;2023-03-23T03:21:54;39.83;;;18.80;;
22030;SDS011;11179;52.106;21.024;2023-03-23T03:24:23;37.53;;;18.00;;
22030;SDS011;11179;52.106;21.024;2023-03-23T03:26:51;34.93;;;17.60;;
22030;SDS011;11179;52.106;21.024;2023-03-23T03:29:20;41.73;;;19.03;;
22030;SDS011;11179;52.106;21.024;2023-03-23T03:31:49;36.33;;;19.33;;
22030;SDS011;11179;52.106;21.024;2023-03-23T03:34:20;36.07;;;18.20;;
22030;SDS011;11179;52.106;21.024;2023-03-23T03:36:46;38.53;;;19.17;;
22030;SDS011;11179;52.106;21.024;2023-03-23T03:39:15;38.37;;;19.20;;
22030;SDS011;11179;52.106;21.024;2023-03-23T03:41:42;36.57;;;18.17;;
22030;SDS011;11179;52.106;21.024;2023-03-23T03:44:08;36.30;;;18.73;;
22030;SDS011;11179;52.106;21.024;2023-03-23T03:46:34;36.53;;;18.33;;
22030;SDS011;11179;52.106;21.024;2023-03-23T03:49:01;31.50;;;17.90;;
22030;SDS011;11179;52.106;21.024;2023-03-23T03:51:30;37.30;;;18.13;;
22030;SDS011;11179;52.106;21.024;2023-03-23T03:53:56;38.07;;;17.87;;
22030;SDS011;11179;52.106;21.024;2023-03-23T03:56:21;34.10;;;16.80;;
22030;SDS011;11179;52.106;21.024;2023-03-23T03:58:47;35.17;;;16.70;;
22030;SDS011;11179;52.106;21.024;2023-03-23T04:01:14;34.70;;;17.70;;
22030;SDS011;11179;52.106;21.024;2023-03-23T04:03:41;35.80;;;17.43;;
22030;SDS011;11179;52.106;21.024;2023-03-23T04:06:07;37.93;;;17.77;;
22030;SDS011;11179;52.106;21.024;2023-03-23T04:08:33;35.50;;;18.60;;
22030;SDS011;11179;52.106;21.024;2023-03-23T04:11:00;37.53;;;19.00;;
22030;SDS011;11179;52.106;21.024;2023-03-23T04:13:26;39.67;;;19.40;;
22030;SDS011;11179;52.106;21.024;2023-03-23T04:15:51;37.80;;;18.63;;
22030;SDS011;11179;52.106;21.024;2023-03-23T04:18:17;36.20;;;19.60;;
22030;SDS011;11179;52.106;21.024;2023-03-23T04:20:46;39.60;;;18.53;;
22030;SDS011;11179;52.106;21.024;2023-03-23T04:23:14;37.97;;;18.23;;
22030;SDS011;11179;52.106;21.024;2023-03-23T04:25:45;34.63;;;17.63;;
22030;SDS011;11179;52.106;21.024;2023-03-23T04:28:11;42.77;;;19.30;;
22030;SDS011;11179;52.106;21.024;2023-03-23T04:30:37;40.53;;;18.93;;
22030;SDS011;11179;52.106;21.024;2023-03-23T04:33:02;35.00;;;18.43;;
22030;SDS011;11179;52.106;21.024;2023-03-23T04:35:28;36.20;;;18.70;;
22030;SDS011;11179;52.106;21.024;2023-03-23T04:37:54;35.67;;;17.60;;
22030;SDS011;11179;52.106;21.024;2023-03-23T04:40:20;35.03;;;17.30;;
22030;SDS011;11179;52.106;21.024;2023-03-23T04:42:46;37.33;;;17.80;;
22030;SDS011;11179;52.106;21.024;2023-03-23T04:45:13;39.17;;;18.90;;
22030;SDS011;11179;52.106;21.024;2023-03-23T04:47:46;39.70;;;18.80;;
22030;SDS011;11179;52.106;21.024;2023-03-23T04:50:18;36.43;;;18.10;;
22030;SDS011;11179;52.106;21.024;2023-03-23T04:52:45;33.37;;;18.80;;
22030;SDS011;11179;52.106;21.024;2023-03-23T04:55:11;38.93;;;17.77;;
22030;SDS011;11179;52.106;21.024;2023-03-23T04:57:37;38.70;;;17.60;;
22030;SDS011;11179;52.106;21.024;2023-03-23T05:00:03;39.80;;;18.57;;
22030;SDS011;11179;52.106;21.024;2023-03-23T05:02:35;36.93;;;18.10;;
22030;SDS011;11179;52.106;21.024;2023-03-23T05:05:01;44.03;;;18.77;;
22030;SDS011;11179;52.106;21.024;2023-03-23T05:07:26;37.77;;;18.20;;
22030;SDS011;11179;52.106;21.024;2023-03-23T05:09:52;40.93;;;18.40;;
22030;SDS011;11179;52.106;21.024;2023-03-23T05:12:17;42.07;;;20.30;;
22030;SDS011;11179;52.106;21.024;2023-03-23T05:14:42;32.27;;;17.13;;
22030;SDS011;11179;52.106;21.024;2023-03-23T05:17:08;36.50;;;18.20;;
22030;SDS011;11179;52.106;21.024;2023-03-23T05:19:34;34.20;;;18.77;;
22030;SDS011;11179;52.106;21.024;2023-03-23T05:22:00;36.93;;;17.90;;
22030;SDS011;11179;52.106;21.024;2023-03-23T05:24:30;35.43;;;17.97;;
22030;SDS011;11179;52.106;21.024;2023-03-23T05:26:57;36.10;;;19.00;;
22030;SDS011;11179;52.106;21.024;2023-03-23T05:29:24;36.20;;;19.10;;
22030;SDS011;11179;52.106;21.024;2023-03-23T05:31:50;38.67;;;17.70;;
22030;SDS011;11179;52.106;21.024;2023-03-23T05:34:17;35.93;;;18.00;;
22030;SDS011;11179;52.106;21.024;2023-03-23T05:36:43;41.87;;;17.73;;
22030;SDS011;11179;52.106;21.024;2023-03-23T05:39:10;31.13;;;16.93;;
22030;SDS011;11179;52.106;21.024;2023-03-23T05:41:36;32.57;;;17.70;;
22030;SDS011;11179;52.106;21.024;2023-03-23T05:44:02;33.60;;;17.60;;
22030;SDS011;11179;52.106;21.024;2023-03-23T05:46:28;33.23;;;17.27;;
22030;SDS011;11179;52.106;21.024;2023-03-23T05:48:54;33.00;;;18.50;;
22030;SDS011;11179;52.106;21.024;2023-03-23T05:51:19;32.47;;;17.00;;
22030;SDS011;11179;52.106;21.024;2023-03-23T05:53:44;31.80;;;16.90;;
22030;SDS011;11179;52.106;21.024;2023-03-23T05:56:11;32.03;;;17.60;;
22030;SDS011;11179;52.106;21.024;2023-03-23T05:58:37;36.03;;;15.63;;
22030;SDS011;11179;52.106;21.024;2023-03-23T06:01:05;31.20;;;16.03;;
22030;SDS011;11179;52.106;21.024;2023-03-23T06:03:31;32.57;;;16.70;;
22030;SDS011;11179;52.106;21.024;2023-03-23T06:05:57;35.73;;;16.47;;
22030;SDS011;11179;52.106;21.024;2023-03-23T06:08:23;29.30;;;16.33;;
22030;SDS011;11179;52.106;21.024;2023-03-23T06:10:49;36.20;;;15.93;;
22030;SDS011;11179;52.106;21.024;2023-03-23T06:13:14;34.43;;;17.53;;
22030;SDS011;11179;52.106;21.024;2023-03-23T06:15:40;28.70;;;14.87;;
22030;SDS011;11179;52.106;21.024;2023-03-23T06:18:05;29.47;;;15.23;;
22030;SDS011;11179;52.106;21.024;2023-03-23T06:20:31;28.93;;;15.27;;
22030;SDS011;11179;52.106;21.024;2023-03-23T06:22:57;31.90;;;15.03;;
22030;SDS011;11179;52.106;21.024;2023-03-23T06:25:23;33.13;;;15.33;;
22030;SDS011;11179;52.106;21.024;2023-03-23T06:27:48;36.10;;;16.20;;
22030;SDS011;11179;52.106;21.024;2023-03-23T06:30:14;30.93;;;15.80;;
22030;SDS011;11179;52.106;21.024;2023-03-23T06:32:40;34.03;;;15.63;;
22030;SDS011;11179;52.106;21.024;2023-03-23T06:35:07;40.47;;;16.37;;
22030;SDS011;11179;52.106;21.024;2023-03-23T06:37:34;40.50;;;16.00;;
22030;SDS011;11179;52.106;21.024;2023-03-23T06:40:00;30.07;;;15.47;;
22030;SDS011;11179;52.106;21.024;2023-03-23T06:42:25;32.47;;;14.90;;
22030;SDS011;11179;52.106;21.024;2023-03-23T06:44:51;37.17;;;15.37;;
22030;SDS011;11179;52.106;21.024;2023-03-23T06:47:17;32.33;;;14.83;;
22030;SDS011;11179;52.106;21.024;2023-03-23T06:49:42;27.83;;;13.90;;
22030;SDS011;11179;52.106;21.024;2023-03-23T06:52:08;24.03;;;13.30;;
22030;SDS011;11179;52.106;21.024;2023-03-23T06:54:33;30.47;;;14.17;;
22030;SDS011;11179;52.106;21.024;2023-03-23T06:56:58;28.93;;;14.20;;
22030;SDS011;11179;52.106;21.024;2023-03-23T06:59:24;29.67;;;15.13;;
22030;SDS011;11179;52.106;21.024;2023-03-23T07:01:49;33.87;;;14.93;;
22030;SDS011;11179;52.106;21.024;2023-03-23T07:04:15;22.60;;;12.97;;
22030;SDS011;11179;52.106;21.024;2023-03-23T07:06:41;27.53;;;14.40;;
22030;SDS011;11179;52.106;21.024;2023-03-23T07:09:06;24.67;;;13.90;;
22030;SDS011;11179;52.106;21.024;2023-03-23T07:11:32;23.23;;;13.50;;
22030;SDS011;11179;52.106;21.024;2023-03-23T07:13:57;26.80;;;13.53;;
22030;SDS011;11179;52.106;21.024;2023-03-23T07:16:23;22.53;;;13.20;;
22030;SDS011;11179;52.106;21.024;2023-03-23T07:18:48;28.37;;;13.07;;
22030;SDS011;11179;52.106;21.024;2023-03-23T07:21:13;25.13;;;12.30;;
22030;SDS011;11179;52.106;21.024;2023-03-23T07:23:39;24.83;;;13.00;;
22030;SDS011;11179;52.106;21.024;2023-03-23T07:26:05;31.13;;;13.97;;
22030;SDS011;11179;52.106;21.024;2023-03-23T07:28:30;23.87;;;13.00;;
22030;SDS011;11179;52.106;21.024;2023-03-23T07:30:56;33.63;;;14.60;;
22030;SDS011;11179;52.106;21.024;2023-03-23T07:33:21;23.80;;;12.73;;
22030;SDS011;11179;52.106;21.024;2023-03-23T07:35:47;25.07;;;12.70;;
22030;SDS011;11179;52.106;21.024;2023-03-23T07:38:12;23.50;;;13.00;;
22030;SDS011;11179;52.106;21.024;2023-03-23T07:40:38;27.80;;;11.70;;
22030;SDS011;11179;52.106;21.024;2023-03-23T07:43:04;24.83;;;11.70;;
22030;SDS011;11179;52.106;21.024;2023-03-23T07:45:30;24.93;;;12.90;;
22030;SDS011;11179;52.106;21.024;2023-03-23T07:47:56;27.90;;;12.37;;
22030;SDS011;11179;52.106;21.024;2023-03-23T07:50:21;25.60;;;12.40;;
22030;SDS011;11179;52.106;21.024;2023-03-23T07:52:49;20.93;;;11.53;;
22030;SDS011;11179;52.106;21.024;2023-03-23T07:55:15;21.43;;;11.90;;
22030;SDS011;11179;52.106;21.024;2023-03-23T07:57:46;23.57;;;11.20;;
22030;SDS011;11179;52.106;21.024;2023-03-23T08:00:13;23.07;;;11.90;;
22030;SDS011;11179;52.106;21.024;2023-03-23T08:02:48;30.73;;;12.27;;
22030;SDS011;11179;52.106;21.024;2023-03-23T08:05:16;19.33;;;11.10;;
22030;SDS011;11179;52.106;21.024;2023-03-23T08:07:43;25.17;;;11.10;;
22030;SDS011;11179;52.106;21.024;2023-03-23T08:10:10;23.30;;;11.80;;
22030;SDS011;11179;52.106;21.024;2023-03-23T08:12:40;22.80;;;11.13;;
22030;SDS011;11179;52.106;21.024;2023-03-23T08:15:07;23.70;;;10.80;;
22030;SDS011;11179;52.106;21.024;2023-03-23T08:17:34;25.03;;;10.67;;
22030;SDS011;11179;52.106;21.024;2023-03-23T08:20:03;27.80;;;10.53;;
22030;SDS011;11179;52.106;21.024;2023-03-23T08:22:38;23.10;;;11.40;;
22030;SDS011;11179;52.106;21.024;2023-03-23T08:25:08;20.03;;;10.43;;
22030;SDS011;11179;52.106;21.024;2023-03-23T08:27:35;20.27;;;10.87;;
22030;SDS011;11179;52.106;21.024;2023-03-23T08:30:02;20.17;;;8.90;;
22030;SDS011;11179;52.106;21.024;2023-03-23T08:32:29;21.42;;;9.05;;
22030;SDS011;11179;52.106;21.024;2023-03-23T08:34:55;18.60;;;9.10;;
22030;SDS011;11179;52.106;21.024;2023-03-23T08:37:22;20.80;;;8.87;;
22030;SDS011;11179;52.106;21.024;2023-03-23T08:39:50;16.57;;;8.40;;
22030;SDS011;11179;52.106;21.024;2023-03-23T08:42:16;15.33;;;7.80;;
22030;SDS011;11179;52.106;21.024;2023-03-23T08:44:43;19.37;;;9.07;;
22030;SDS011;11179;52.106;21.024;2023-03-23T08:47:09;18.40;;;8.60;;
22030;SDS011;11179;52.106;21.024;2023-03-23T08:49:34;17.03;;;8.53;;
22030;SDS011;11179;52.106;21.024;2023-03-23T08:52:00;18.60;;;7.43;;
22030;SDS011;11179;52.106;21.024;2023-03-23T08:54:26;16.87;;;8.67;;
22030;SDS011;11179;52.106;21.024;2023-03-23T08:56:51;24.73;;;8.57;;
22030;SDS011;11179;52.106;21.024;2023-03-23T08:59:17;18.87;;;7.37;;
22030;SDS011;11179;52.106;21.024;2023-03-23T09:01:43;14.77;;;8.73;;
22030;SDS011;11179;52.106;21.024;2023-03-23T09:04:08;15.10;;;7.13;;
22030;SDS011;11179;52.106;21.024;2023-03-23T09:06:35;18.20;;;7.70;;
22030;SDS011;11179;52.106;21.024;2023-03-23T09:09:01;14.80;;;6.77;;
22030;SDS011;11179;52.106;21.024;2023-03-23T09:11:31;15.80;;;8.00;;
22030;SDS011;11179;52.106;21.024;2023-03-23T09:14:00;16.07;;;7.40;;
22030;SDS011;11179;52.106;21.024;2023-03-23T09:16:27;16.27;;;7.57;;
22030;SDS011;11179;52.106;21.024;2023-03-23T09:18:53;14.80;;;6.50;;
22030;SDS011;11179;52.106;21.024;2023-03-23T09:21:18;13.97;;;7.70;;
22030;SDS011;11179;52.106;21.024;2023-03-23T09:23:45;14.63;;;7.80;;
22030;SDS011;11179;52.106;21.024;2023-03-23T09:26:11;13.53;;;7.10;;
22030;SDS011;11179;52.106;21.024;2023-03-23T09:28:36;18.27;;;7.40;;
22030;SDS011;11179;52.106;21.024;2023-03-23T09:31:02;14.80;;;7.10;;
22030;SDS011;11179;52.106;21.024;2023-03-23T09:33:29;15.80;;;6.37;;
22030;SDS011;11179;52.106;21.024;2023-03-23T09:36:01;12.77;;;6.17;;
22030;SDS011;11179;52.106;21.024;2023-03-23T09:38:27;13.43;;;6.37;;
22030;SDS011;11179;52.106;21.024;2023-03-23T09:49:43;26.23;;;7.90;;
22030;SDS011;11179;52.106;21.024;2023-03-23T09:52:22;19.43;;;8.30;;
22030;SDS011;11179;52.106;21.024;2023-03-23T09:54:53;16.20;;;6.70;;
22030;SDS011;11179;52.106;21.024;2023-03-23T10:03:06;14.90;;;8.33;;
22030;SDS011;11179;52.106;21.024;2023-03-23T10:05:44;18.13;;;8.90;;
22030;SDS011;11179;52.106;21.024;2023-03-23T10:08:16;19.73;;;9.83;;
22030;SDS011;11179;52.106;21.024;2023-03-23T10:13:48;15.00;;;7.67;;
22030;SDS011;11179;52.106;21.024;2023-03-23T10:16:25;15.33;;;6.90;;
22030;SDS011;11179;52.106;21.024;2023-03-23T10:19:03;14.03;;;7.10;;
22030;SDS011;11179;52.106;21.024;2023-03-23T10:21:32;13.83;;;7.50;;
22030;SDS011;11179;52.106;21.024;2023-03-23T10:24:03;13.53;;;6.87;;
22030;SDS011;11179;52.106;21.024;2023-03-23T10:31:58;13.70;;;6.70;;
22030;SDS011;11179;52.106;21.024;2023-03-23T10:37:12;12.70;;;6.60;;
22030;SDS011;11179;52.106;21.024;2023-03-23T10:39:48;14.17;;;6.00;;
22030;SDS011;11179;52.106;21.024;2023-03-23T10:42:30;13.03;;;6.90;;
22030;SDS011;11179;52.106;21.024;2023-03-23T10:44:59;13.90;;;5.90;;
22030;SDS011;11179;52.106;21.024;2023-03-23T10:47:33;14.23;;;5.97;;
22030;SDS011;11179;52.106;21.024;2023-03-23T10:50:04;12.00;;;5.50;;
22030;SDS011;11179;52.106;21.024;2023-03-23T10:52:34;12.30;;;5.43;;
22030;SDS011;11179;52.106;21.024;2023-03-23T10:55:07;16.83;;;5.83;;
22030;SDS011;11179;52.106;21.024;2023-03-23T10:57:33;12.57;;;5.07;;
22030;SDS011;11179;52.106;21.024;2023-03-23T11:02:57;10.10;;;5.27;;
22030;SDS011;11179;52.106;21.024;2023-03-23T11:08:19;9.80;;;5.23;;
22030;SDS011;11179;52.106;21.024;2023-03-23T11:13:17;19.70;;;5.23;;
22030;SDS011;11179;52.106;21.024;2023-03-23T11:15:44;11.73;;;4.90;;
22030;SDS011;11179;52.106;21.024;2023-03-23T11:20:49;18.77;;;5.90;;
22030;SDS011;11179;52.106;21.024;2023-03-23T11:23:29;11.53;;;4.63;;
22030;SDS011;11179;52.106;21.024;2023-03-23T11:28:27;8.97;;;4.30;;
22030;SDS011;11179;52.106;21.024;2023-03-23T11:30:57;12.40;;;4.70;;
22030;SDS011;11179;52.106;21.024;2023-03-23T11:33:28;9.87;;;4.40;;
22030;SDS011;11179;52.106;21.024;2023-03-23T11:35:55;7.57;;;4.10;;
22030;SDS011;11179;52.106;21.024;2023-03-23T11:38:21;16.50;;;5.27;;
22030;SDS011;11179;52.106;21.024;2023-03-23T11:40:49;9.60;;;3.87;;
22030;SDS011;11179;52.106;21.024;2023-03-23T11:43:20;7.07;;;4.10;;
22030;SDS011;11179;52.106;21.024;2023-03-23T11:45:50;6.67;;;3.27;;
22030;SDS011;11179;52.106;21.024;2023-03-23T11:48:35;8.40;;;3.93;;
22030;SDS011;11179;52.106;21.024;2023-03-23T11:53:45;9.13;;;3.10;;
22030;SDS011;11179;52.106;21.024;2023-03-23T11:58:44;8.20;;;3.07;;
22030;SDS011;11179;52.106;21.024;2023-03-23T12:01:19;9.27;;;3.90;;
22030;SDS011;11179;52.106;21.024;2023-03-23T12:07:02;7.53;;;3.17;;
22030;SDS011;11179;52.106;21.024;2023-03-23T12:12:56;7.53;;;3.17;;
22030;SDS011;11179;52.106;21.024;2023-03-23T12:18:23;7.23;;;3.60;;
22030;SDS011;11179;52.106;21.024;2023-03-23T12:23:27;9.80;;;3.73;;
22030;SDS011;11179;52.106;21.024;2023-03-23T12:42:44;9.20;;;4.20;;
22030;SDS011;11179;52.106;21.024;2023-03-23T12:47:59;12.90;;;5.13;;
22030;SDS011;11179;52.106;21.024;2023-03-23T12:51:29;11.07;;;4.80;;
22030;SDS011;11179;52.106;21.024;2023-03-23T12:53:36;11.43;;;5.30;;
22030;SDS011;11179;52.106;21.024;2023-03-23T12:56:12;9.60;;;4.70;;
22030;SDS011;11179;52.106;21.024;2023-03-23T12:58:42;9.80;;;4.73;;
22030;SDS011;11179;52.106;21.024;2023-03-23T13:01:18;9.20;;;4.27;;
22030;SDS011;11179;52.106;21.024;2023-03-23T13:03:50;12.20;;;4.93;;
22030;SDS011;11179;52.106;21.024;2023-03-23T13:06:38;20.53;;;4.87;;
22030;SDS011;11179;52.106;21.024;2023-03-23T13:09:15;8.83;;;4.23;;
22030;SDS011;11179;52.106;21.024;2023-03-23T13:11:46;8.60;;;4.63;;
22030;SDS011;11179;52.106;21.024;2023-03-23T13:22:55;10.13;;;4.20;;
22030;SDS011;11179;52.106;21.024;2023-03-23T13:25:42;11.67;;;4.00;;
22030;SDS011;11179;52.106;21.024;2023-03-23T13:28:16;11.30;;;4.33;;
22030;SDS011;11179;52.106;21.024;2023-03-23T13:30:54;7.90;;;3.83;;
22030;SDS011;11179;52.106;21.024;2023-03-23T13:33:19;8.67;;;4.47;;
22030;SDS011;11179;52.106;21.024;2023-03-23T13:35:46;9.73;;;4.30;;
22030;SDS011;11179;52.106;21.024;2023-03-23T13:38:23;8.97;;;4.70;;
22030;SDS011;11179;52.106;21.024;2023-03-23T13:40:51;11.83;;;5.33;;
22030;SDS011;11179;52.106;21.024;2023-03-23T13:43:25;9.43;;;4.30;;
22030;SDS011;11179;52.106;21.024;2023-03-23T13:45:52;10.67;;;4.13;;
22030;SDS011;11179;52.106;21.024;2023-03-23T13:48:21;9.33;;;3.77;;
22030;SDS011;11179;52.106;21.024;2023-03-23T13:50:56;10.30;;;3.60;;
22030;SDS011;11179;52.106;21.024;2023-03-23T13:53:29;10.37;;;3.13;;
22030;SDS011;11179;52.106;21.024;2023-03-23T13:56:15;10.47;;;3.27;;
22030;SDS011;11179;52.106;21.024;2023-03-23T13:58:48;6.97;;;2.83;;
22030;SDS011;11179;52.106;21.024;2023-03-23T14:01:18;11.77;;;4.60;;
22030;SDS011;11179;52.106;21.024;2023-03-23T14:03:58;9.70;;;3.40;;
22030;SDS011;11179;52.106;21.024;2023-03-23T14:06:25;13.97;;;3.57;;
22030;SDS011;11179;52.106;21.024;2023-03-23T14:09:02;8.47;;;3.50;;
22030;SDS011;11179;52.106;21.024;2023-03-23T14:11:31;9.53;;;3.93;;
22030;SDS011;11179;52.106;21.024;2023-03-23T14:14:07;7.13;;;3.83;;
22030;SDS011;11179;52.106;21.024;2023-03-23T14:19:15;8.87;;;3.50;;
22030;SDS011;11179;52.106;21.024;2023-03-23T14:21:50;11.47;;;3.30;;
22030;SDS011;11179;52.106;21.024;2023-03-23T14:24:30;6.30;;;3.30;;
22030;SDS011;11179;52.106;21.024;2023-03-23T14:27:11;8.47;;;3.67;;
22030;SDS011;11179;52.106;21.024;2023-03-23T14:29:39;6.80;;;3.33;;
22030;SDS011;11179;52.106;21.024;2023-03-23T14:32:05;11.53;;;2.80;;
22030;SDS011;11179;52.106;21.024;2023-03-23T14:34:32;6.87;;;2.80;;
22030;SDS011;11179;52.106;21.024;2023-03-23T14:36:59;7.67;;;3.50;;
22030;SDS011;11179;52.106;21.024;2023-03-23T14:39:26;8.37;;;3.57;;
22030;SDS011;11179;52.106;21.024;2023-03-23T14:41:54;9.07;;;3.53;;
22030;SDS011;11179;52.106;21.024;2023-03-23T14:44:23;7.83;;;3.57;;
22030;SDS011;11179;52.106;21.024;2023-03-23T14:46:51;9.97;;;3.60;;
22030;SDS011;11179;52.106;21.024;2023-03-23T14:49:27;10.10;;;3.90;;
22030;SDS011;11179;52.106;21.024;2023-03-23T14:52:01;7.77;;;4.40;;
22030;SDS011;11179;52.106;21.024;2023-03-23T14:54:29;11.00;;;4.30;;
22030;SDS011;11179;52.106;21.024;2023-03-23T14:57:02;15.13;;;4.10;;
22030;SDS011;11179;52.106;21.024;2023-03-23T14:59:34;8.70;;;4.07;;
22030;SDS011;11179;52.106;21.024;2023-03-23T15:01:59;7.43;;;3.97;;
22030;SDS011;11179;52.106;21.024;2023-03-23T15:04:26;13.63;;;4.90;;
22030;SDS011;11179;52.106;21.024;2023-03-23T15:06:54;9.80;;;4.20;;
22030;SDS011;11179;52.106;21.024;2023-03-23T15:09:24;9.20;;;3.70;;
22030;SDS011;11179;52.106;21.024;2023-03-23T15:11:55;12.57;;;4.07;;
22030;SDS011;11179;52.106;21.024;2023-03-23T15:14:23;8.67;;;4.20;;
22030;SDS011;11179;52.106;21.024;2023-03-23T15:16:53;9.63;;;4.07;;
22030;SDS011;11179;52.106;21.024;2023-03-23T15:19:25;12.60;;;3.80;;
22030;SDS011;11179;52.106;21.024;2023-03-23T15:21:56;14.43;;;4.53;;
22030;SDS011;11179;52.106;21.024;2023-03-23T15:24:33;28.70;;;6.43;;
22030;SDS011;11179;52.106;21.024;2023-03-23T15:27:03;11.60;;;4.97;;
22030;SDS011;11179;52.106;21.024;2023-03-23T15:29:49;8.40;;;4.13;;
22030;SDS011;11179;52.106;21.024;2023-03-23T15:32:23;8.77;;;4.53;;
22030;SDS011;11179;52.106;21.024;2023-03-23T15:34:51;8.20;;;4.17;;
22030;SDS011;11179;52.106;21.024;2023-03-23T15:39:50;13.63;;;4.87;;
22030;SDS011;11179;52.106;21.024;2023-03-23T15:42:21;10.53;;;4.80;;
22030;SDS011;11179;52.106;21.024;2023-03-23T15:44:56;14.13;;;5.20;;
22030;SDS011;11179;52.106;21.024;2023-03-23T15:47:33;16.43;;;5.60;;
22030;SDS011;11179;52.106;21.024;2023-03-23T15:50:08;14.50;;;6.43;;
22030;SDS011;11179;52.106;21.024;2023-03-23T15:52:35;17.13;;;5.67;;
22030;SDS011;11179;52.106;21.024;2023-03-23T15:55:00;11.20;;;5.33;;
22030;SDS011;11179;52.106;21.024;2023-03-23T15:57:26;12.43;;;5.37;;
22030;SDS011;11179;52.106;21.024;2023-03-23T15:59:51;14.90;;;5.30;;
22030;SDS011;11179;52.106;21.024;2023-03-23T16:02:18;13.97;;;5.80;;
22030;SDS011;11179;52.106;21.024;2023-03-23T16:04:48;13.00;;;6.13;;
22030;SDS011;11179;52.106;21.024;2023-03-23T16:07:14;16.43;;;6.00;;
22030;SDS011;11179;52.106;21.024;2023-03-23T16:09:40;13.40;;;6.03;;
22030;SDS011;11179;52.106;21.024;2023-03-23T16:12:12;15.00;;;6.13;;
22030;SDS011;11179;52.106;21.024;2023-03-23T16:14:38;18.47;;;7.90;;
22030;SDS011;11179;52.106;21.024;2023-03-23T16:17:04;39.00;;;15.80;;